createdAt,value
2023-03-25T00:00:57.765Z,80.80
2023-03-25T00:03:26.670Z,80.80
2023-03-25T00:05:55.431Z,81.00
2023-03-25T00:08:25.456Z,80.80
2023-03-25T00:10:54.834Z,80.70
2023-03-25T00:13:23.697Z,80.80
2023-03-25T00:15:58.348Z,80.80
2023-03-25T00:18:29.315Z,80.70
2023-03-25T00:20:57.762Z,80.70
2023-03-25T00:23:25.830Z,80.80
2023-03-25T00:25:56.448Z,80.80
2023-03-25T00:28:25.198Z,80.90
2023-03-25T00:30:54.938Z,80.90
2023-03-25T00:33:23.705Z,80.90
2023-03-25T00:35:54.867Z,80.90
2023-03-25T00:38:24.723Z,80.70
2023-03-25T00:40:53.288Z,80.50
2023-03-25T00:43:21.340Z,80.40
2023-03-25T00:45:50.033Z,80.40
2023-03-25T00:48:20.795Z,80.30
2023-03-25T00:50:49.430Z,80.40
2023-03-25T00:53:17.963Z,80.40
2023-03-25T00:55:46.362Z,80.30
2023-03-25T00:58:14.546Z,80.20
2023-03-25T01:00:42.824Z,80.20
2023-03-25T01:03:12.755Z,80.20
2023-03-25T01:05:43.147Z,79.90
2023-03-25T01:08:14.771Z,79.60
2023-03-25T01:10:42.961Z,79.50
2023-03-25T01:13:11.502Z,79.40
2023-03-25T01:15:41.371Z,79.50
2023-03-25T01:18:10.592Z,79.50
2023-03-25T01:20:40.471Z,79.70
2023-03-25T01:23:10.791Z,79.90
2023-03-25T01:25:39.228Z,80.20
2023-03-25T01:28:07.428Z,80.30
2023-03-25T01:30:36.780Z,80.40
2023-03-25T01:33:05.091Z,80.40
2023-03-25T01:35:33.357Z,80.30
2023-03-25T01:38:02.001Z,80.00
2023-03-25T01:40:31.855Z,80.00
2023-03-25T01:43:00.096Z,80.00
2023-03-25T01:45:29.120Z,79.70
2023-03-25T01:48:01.487Z,79.80
2023-03-25T01:50:30.639Z,79.50
2023-03-25T01:53:00.032Z,79.30
2023-03-25T01:55:29.113Z,79.20
2023-03-25T01:57:59.893Z,79.00
2023-03-25T02:00:28.776Z,79.00
2023-03-25T02:03:00.136Z,78.90
2023-03-25T02:05:29.936Z,79.20
2023-03-25T02:08:00.430Z,79.50
2023-03-25T02:10:31.397Z,79.80
2023-03-25T02:13:01.765Z,79.90
2023-03-25T02:15:33.948Z,80.20
2023-03-25T02:18:09.811Z,80.30
2023-03-25T02:21:03.004Z,80.30
2023-03-25T02:23:41.952Z,80.60
2023-03-25T02:29:10.774Z,80.70
2023-03-25T02:31:44.703Z,80.70
2023-03-25T02:34:31.990Z,80.70
2023-03-25T02:37:10.346Z,80.60
2023-03-25T02:39:49.580Z,80.50
2023-03-25T02:42:25.074Z,80.50
2023-03-25T02:45:01.148Z,80.40
2023-03-25T02:47:36.979Z,80.60
2023-03-25T02:50:08.117Z,80.60
2023-03-25T02:52:40.290Z,80.50
2023-03-25T02:55:17.413Z,80.60
2023-03-25T02:57:51.630Z,80.40
2023-03-25T03:00:22.554Z,80.20
2023-03-25T03:02:55.022Z,80.20
2023-03-25T03:05:27.309Z,80.20
2023-03-25T03:08:07.255Z,80.00
2023-03-25T03:10:44.586Z,79.90
2023-03-25T03:13:21.563Z,80.00
2023-03-25T03:15:54.573Z,80.20
2023-03-25T03:18:35.117Z,80.20
2023-03-25T03:21:10.674Z,80.30
2023-03-25T03:26:19.438Z,80.40
2023-03-25T03:28:59.686Z,80.40
2023-03-25T03:34:08.584Z,80.30
2023-03-25T03:39:31.044Z,80.30
2023-03-25T03:42:03.751Z,80.30
2023-03-25T03:44:36.429Z,80.10
2023-03-25T03:47:07.519Z,80.20
2023-03-25T03:49:40.967Z,80.20
2023-03-25T03:52:14.656Z,80.20
2023-03-25T03:54:47.455Z,80.10
2023-03-25T03:57:22.326Z,80.20
2023-03-25T03:59:58.545Z,80.10
2023-03-25T04:02:30.225Z,80.20
2023-03-25T04:08:18.497Z,80.00
2023-03-25T04:11:06.816Z,80.00
2023-03-25T04:13:39.223Z,79.80
2023-03-25T04:16:09.025Z,79.90
2023-03-25T04:18:40.236Z,79.70
2023-03-25T04:21:09.981Z,79.80
2023-03-25T04:23:44.688Z,79.70
2023-03-25T04:26:38.222Z,79.70
2023-03-25T04:32:26.427Z,79.50
2023-03-25T04:35:01.375Z,79.60
2023-03-25T04:40:28.988Z,79.30
2023-03-25T04:43:17.837Z,79.00
2023-03-25T04:45:59.649Z,79.00
2023-03-25T04:51:24.845Z,78.90
2023-03-25T05:02:47.232Z,78.70
2023-03-25T05:05:18.805Z,78.70
2023-03-25T05:07:49.664Z,78.80
2023-03-25T05:10:22.126Z,78.60
2023-03-25T05:12:59.602Z,78.50
2023-03-25T05:15:33.871Z,78.40
2023-03-25T05:18:03.185Z,78.40
2023-03-25T05:20:35.385Z,78.70
2023-03-25T05:23:04.618Z,78.60
2023-03-25T05:25:34.765Z,78.80
2023-03-25T05:33:43.017Z,79.00
2023-03-25T05:36:12.307Z,79.00
2023-03-25T05:38:43.740Z,78.90
2023-03-25T05:41:17.091Z,79.00
2023-03-25T06:03:57.508Z,80.30
2023-03-25T06:06:26.118Z,80.60
2023-03-25T06:08:57.795Z,80.90
2023-03-25T06:11:26.226Z,81.10
2023-03-25T06:20:32.489Z,81.20
2023-03-25T06:25:55.883Z,81.60
2023-03-25T06:28:25.924Z,81.60
2023-03-25T06:30:56.167Z,81.60
2023-03-25T06:33:43.453Z,81.60
2023-03-25T06:36:21.273Z,81.60
2023-03-25T06:38:50.958Z,81.40
2023-03-25T06:41:22.385Z,81.40
2023-03-25T06:43:59.230Z,81.30
2023-03-25T06:46:50.853Z,81.00
2023-03-25T06:49:31.725Z,80.80
2023-03-25T06:52:03.223Z,79.70
2023-03-25T06:54:31.852Z,79.20
2023-03-25T06:56:59.925Z,79.20
2023-03-25T06:59:37.251Z,79.10
2023-03-25T07:02:08.299Z,79.30
2023-03-25T07:04:39.222Z,77.60
2023-03-25T07:07:08.608Z,77.50
2023-03-25T07:09:39.689Z,75.90
2023-03-25T07:12:09.184Z,77.00
2023-03-25T07:14:39.621Z,77.00
2023-03-25T07:17:08.730Z,76.90
2023-03-25T07:19:37.642Z,76.60
2023-03-25T07:22:13.668Z,76.10
2023-03-25T07:24:43.406Z,74.90
2023-03-25T07:27:14.563Z,74.60
2023-03-25T07:29:48.015Z,74.80
2023-03-25T07:32:16.648Z,74.40
2023-03-25T07:34:45.651Z,73.30
2023-03-25T07:37:15.331Z,72.90
2023-03-25T07:39:43.632Z,73.50
2023-03-25T07:42:15.009Z,74.20
2023-03-25T07:45:04.049Z,73.50
2023-03-25T07:47:36.167Z,72.70
2023-03-25T07:50:06.518Z,72.80
2023-03-25T07:52:37.619Z,72.20
2023-03-25T07:55:09.624Z,72.00
2023-03-25T07:57:38.307Z,72.40
2023-03-25T08:00:07.792Z,72.50
2023-03-25T08:03:01.088Z,73.40
2023-03-25T08:05:36.914Z,72.80
2023-03-25T08:08:13.168Z,73.00
2023-03-25T08:10:44.933Z,73.50
2023-03-25T08:13:16.116Z,73.30
2023-03-25T08:15:44.848Z,73.10
2023-03-25T08:18:13.467Z,72.20
2023-03-25T08:20:47.568Z,72.70
2023-03-25T08:23:19.704Z,72.80
2023-03-25T08:25:55.433Z,72.80
2023-03-25T08:28:29.243Z,71.70
2023-03-25T08:31:03.044Z,70.70
2023-03-25T08:33:34.828Z,71.20
2023-03-25T08:36:05.305Z,71.40
2023-03-25T08:38:35.689Z,72.20
2023-03-25T08:41:10.145Z,72.20
2023-03-25T08:43:38.368Z,71.90
2023-03-25T08:46:09.687Z,71.20
2023-03-25T08:48:39.998Z,69.80
2023-03-25T08:51:15.295Z,69.10
2023-03-25T08:53:44.513Z,70.40
2023-03-25T08:59:04.286Z,71.60
2023-03-25T09:01:33.959Z,71.60
2023-03-25T09:04:04.490Z,72.40
2023-03-25T09:06:48.119Z,73.40
2023-03-25T09:09:25.703Z,73.00
2023-03-25T09:11:56.849Z,72.70
2023-03-25T09:14:32.675Z,72.00
2023-03-25T09:17:00.973Z,72.60
2023-03-25T09:19:33.274Z,72.80
2023-03-25T09:22:04.381Z,72.50
2023-03-25T09:24:34.498Z,73.20
2023-03-25T09:27:07.951Z,73.20
2023-03-25T09:29:43.792Z,73.90
2023-03-25T09:32:19.607Z,74.90
2023-03-25T09:34:52.596Z,75.20
2023-03-25T09:37:23.584Z,74.30
2023-03-25T09:39:51.822Z,73.70
2023-03-25T09:42:32.879Z,73.30
2023-03-25T09:45:12.491Z,74.20
2023-03-25T09:47:43.079Z,75.60
2023-03-25T09:50:16.714Z,76.40
2023-03-25T09:55:43.760Z,77.50
2023-03-25T09:58:24.119Z,78.20
2023-03-25T10:00:57.989Z,78.50
2023-03-25T10:03:30.655Z,78.40
2023-03-25T10:06:18.403Z,79.60
2023-03-25T10:09:02.901Z,78.30
2023-03-25T10:11:36.797Z,77.90
2023-03-25T10:14:08.172Z,78.30
2023-03-25T10:16:48.206Z,78.90
2023-03-25T10:19:26.793Z,78.60
2023-03-25T10:24:59.799Z,79.80
2023-03-25T10:27:35.102Z,80.50
2023-03-25T10:32:52.516Z,80.70
2023-03-25T10:55:08.449Z,76.20
2023-03-25T10:57:37.448Z,75.40
2023-03-25T11:00:13.005Z,74.20
2023-03-25T11:02:45.163Z,74.80
2023-03-25T11:05:19.738Z,71.80
2023-03-25T11:07:52.023Z,72.70
2023-03-25T11:10:24.974Z,71.90
2023-03-25T11:12:54.382Z,70.40
2023-03-25T11:15:24.425Z,69.10
2023-03-25T11:18:00.611Z,68.00
2023-03-25T11:20:31.659Z,65.50
2023-03-25T11:23:04.781Z,67.00
2023-03-25T11:25:40.109Z,66.80
2023-03-25T11:28:17.188Z,67.20
2023-03-25T11:31:06.362Z,67.00
2023-03-25T11:33:37.139Z,66.40
2023-03-25T11:36:14.301Z,62.80
2023-03-25T11:38:55.761Z,63.30
2023-03-25T11:41:30.996Z,61.90
2023-03-25T11:43:59.416Z,64.00
2023-03-25T11:46:28.321Z,63.60
2023-03-25T11:48:58.859Z,64.50
2023-03-25T11:51:30.010Z,65.10
2023-03-25T11:54:03.866Z,62.50
2023-03-25T11:56:37.118Z,62.60
2023-03-25T11:59:09.760Z,61.60
2023-03-25T12:01:52.137Z,63.10
2023-03-25T12:04:23.275Z,64.10
2023-03-25T12:06:58.492Z,65.50
2023-03-25T12:09:30.429Z,65.50
2023-03-25T12:12:15.056Z,65.90
2023-03-25T12:14:57.250Z,68.00
2023-03-25T12:17:32.467Z,69.10
2023-03-25T12:20:08.138Z,67.30
2023-03-25T12:22:45.346Z,62.00
2023-03-25T12:25:32.076Z,61.20
2023-03-25T12:28:35.745Z,61.90
2023-03-25T12:31:09.503Z,59.30
2023-03-25T12:33:47.667Z,58.70
2023-03-25T12:36:24.920Z,59.90
2023-03-25T12:39:00.037Z,61.10
2023-03-25T12:41:30.640Z,57.60
2023-03-25T12:44:05.290Z,59.10
2023-03-25T12:46:51.505Z,60.70
2023-03-25T12:49:31.280Z,61.00
2023-03-25T12:52:04.324Z,61.30
2023-03-25T12:54:44.030Z,58.50
2023-03-25T12:57:20.559Z,58.60
2023-03-25T13:00:01.549Z,60.70
2023-03-25T13:02:36.756Z,64.30
2023-03-25T13:05:18.721Z,67.80
2023-03-25T13:08:17.298Z,72.40
2023-03-25T13:10:49.348Z,75.20
2023-03-25T13:13:19.861Z,75.00
2023-03-25T13:15:52.867Z,74.90
2023-03-25T13:18:26.876Z,73.90
2023-03-25T13:21:06.919Z,74.10
2023-03-25T13:23:43.951Z,72.60
2023-03-25T13:26:13.001Z,69.00
2023-03-25T13:28:44.069Z,67.10
2023-03-25T13:31:20.508Z,65.30
2023-03-25T13:33:55.605Z,63.20
2023-03-25T13:36:39.848Z,63.00
2023-03-25T13:39:14.311Z,63.50
2023-03-25T13:41:44.999Z,61.80
2023-03-25T13:44:16.948Z,60.80
2023-03-25T13:46:52.612Z,59.10
2023-03-25T13:49:25.924Z,55.80
2023-03-25T13:51:56.355Z,56.20
2023-03-25T13:54:29.921Z,57.30
2023-03-25T13:57:22.506Z,58.70
2023-03-25T14:00:10.263Z,58.80
2023-03-25T14:02:57.898Z,60.80
2023-03-25T14:05:38.721Z,60.60
2023-03-25T14:08:29.533Z,57.30
2023-03-25T14:11:21.682Z,54.60
2023-03-25T14:13:54.153Z,53.60
2023-03-25T14:16:24.956Z,54.40
2023-03-25T14:18:55.718Z,55.70
2023-03-25T14:21:29.494Z,56.90
2023-03-25T14:24:02.325Z,54.30
2023-03-25T14:26:34.655Z,53.60
2023-03-25T14:29:08.118Z,52.50
2023-03-25T14:31:36.210Z,52.40
2023-03-25T14:34:29.796Z,52.70
2023-03-25T14:37:29.736Z,52.60
2023-03-25T14:40:00.771Z,53.60
2023-03-25T14:42:41.113Z,52.80
2023-03-25T14:45:42.316Z,51.40
2023-03-25T14:48:26.228Z,52.10
2023-03-25T14:51:20.362Z,52.40
2023-03-25T14:53:52.205Z,51.30
2023-03-25T14:56:23.822Z,52.20
2023-03-25T14:58:54.893Z,53.30
2023-03-25T15:01:27.695Z,53.70
2023-03-25T15:04:09.231Z,54.30
2023-03-25T15:06:38.479Z,55.30
2023-03-25T15:09:11.242Z,53.30
2023-03-25T15:11:40.524Z,53.10
2023-03-25T15:14:11.885Z,54.70
2023-03-25T15:16:56.329Z,54.10
2023-03-25T15:19:25.815Z,53.30
2023-03-25T15:22:20.039Z,54.50
2023-03-25T15:24:51.866Z,53.30
2023-03-25T15:27:26.784Z,55.60
2023-03-25T15:30:02.575Z,56.10
2023-03-25T15:32:38.032Z,57.30
2023-03-25T15:35:27.232Z,55.30
2023-03-25T15:38:10.318Z,55.80
2023-03-25T15:40:45.669Z,56.10
2023-03-25T15:43:50.086Z,55.70
2023-03-25T15:46:34.353Z,55.60
2023-03-25T15:49:09.738Z,53.60
2023-03-25T15:51:47.092Z,53.70
2023-03-25T15:54:34.146Z,54.90
2023-03-25T15:57:04.746Z,54.70
2023-03-25T15:59:38.181Z,55.80
2023-03-25T16:02:13.924Z,54.50
2023-03-25T16:04:44.362Z,55.30
2023-03-25T16:07:14.350Z,53.20
2023-03-25T16:09:46.547Z,53.50
2023-03-25T16:12:20.092Z,53.90
2023-03-25T16:14:48.542Z,53.90
2023-03-25T16:17:19.404Z,55.20
2023-03-25T16:19:50.467Z,54.20
2023-03-25T16:22:21.394Z,55.50
2023-03-25T16:24:50.976Z,56.40
2023-03-25T16:27:24.513Z,57.80
2023-03-25T16:29:54.150Z,57.70
2023-03-25T16:32:25.147Z,58.70
2023-03-25T16:34:54.850Z,58.60
2023-03-25T16:37:25.383Z,58.90
2023-03-25T16:39:54.740Z,59.30
2023-03-25T16:42:27.255Z,59.30
2023-03-25T16:44:56.919Z,59.10
2023-03-25T16:47:27.321Z,59.80
2023-03-25T16:49:57.668Z,60.80
2023-03-25T16:52:27.439Z,61.00
2023-03-25T16:55:14.905Z,62.20
2023-03-25T16:57:43.585Z,63.10
2023-03-25T17:00:19.083Z,63.60
2023-03-25T17:02:50.983Z,63.90
2023-03-25T17:05:21.229Z,64.70
2023-03-25T17:07:51.388Z,65.40
2023-03-25T17:10:23.210Z,65.40
2023-03-25T17:12:55.853Z,65.20
2023-03-25T17:15:25.293Z,65.70
2023-03-25T17:18:00.270Z,66.00
2023-03-25T17:20:32.014Z,66.00
2023-03-25T17:23:04.738Z,66.00
2023-03-25T17:25:38.430Z,66.30
2023-03-25T17:28:09.540Z,66.80
2023-03-25T17:30:42.849Z,66.80
2023-03-25T17:33:15.074Z,67.00
2023-03-25T17:35:44.552Z,66.80
2023-03-25T17:38:17.560Z,67.10
2023-03-25T17:40:46.185Z,67.30
2023-03-25T17:43:19.676Z,67.30
2023-03-25T17:45:48.570Z,67.90
2023-03-25T17:48:18.419Z,68.40
2023-03-25T17:50:53.425Z,69.70
2023-03-25T17:53:22.778Z,70.10
2023-03-25T17:55:52.311Z,70.70
2023-03-25T17:58:23.844Z,72.10
2023-03-25T18:00:53.122Z,72.70
2023-03-25T18:03:27.586Z,73.00
2023-03-25T18:05:58.910Z,73.50
2023-03-25T18:08:29.692Z,73.80
2023-03-25T18:10:59.250Z,73.90
2023-03-25T18:13:28.354Z,73.90
2023-03-25T18:15:57.030Z,73.90
2023-03-25T18:18:27.663Z,73.70
2023-03-25T18:20:57.536Z,73.90
2023-03-25T18:23:26.366Z,73.80
2023-03-25T18:25:56.448Z,74.00
2023-03-25T18:28:25.023Z,74.40
2023-03-25T18:30:54.885Z,74.20
2023-03-25T18:33:24.213Z,74.20
2023-03-25T18:35:59.976Z,74.30
2023-03-25T18:38:29.601Z,74.30
2023-03-25T18:40:59.014Z,74.30
2023-03-25T18:43:30.528Z,74.50
2023-03-25T18:46:01.242Z,74.60
2023-03-25T18:48:31.998Z,74.80
2023-03-25T18:51:02.063Z,74.70
2023-03-25T18:53:31.004Z,74.90
2023-03-25T18:56:01.859Z,75.00
2023-03-25T18:58:32.287Z,75.20
2023-03-25T19:01:02.495Z,75.30
2023-03-25T19:03:38.973Z,75.40
2023-03-25T19:06:12.155Z,75.50
2023-03-25T19:08:46.436Z,75.60
2023-03-25T19:11:21.608Z,75.70
2023-03-25T19:13:53.208Z,75.80
2023-03-25T19:16:24.233Z,75.80
2023-03-25T19:18:52.966Z,75.80
2023-03-25T19:21:23.970Z,75.90
2023-03-25T19:23:53.028Z,76.20
2023-03-25T19:26:21.606Z,76.40
2023-03-25T19:28:50.632Z,76.60
2023-03-25T19:31:19.803Z,76.70
2023-03-25T19:33:48.277Z,76.90
2023-03-25T19:36:20.447Z,77.00
2023-03-25T19:38:53.251Z,77.30
2023-03-25T19:41:21.837Z,77.40
2023-03-25T19:43:53.211Z,77.60
2023-03-25T19:46:21.382Z,77.60
2023-03-25T19:48:49.828Z,77.60
2023-03-25T19:51:18.236Z,77.50
2023-03-25T19:53:48.978Z,77.50
2023-03-25T19:56:18.721Z,77.50
2023-03-25T19:58:47.149Z,77.50
2023-03-25T20:01:17.402Z,77.50
2023-03-25T20:03:46.204Z,77.50
2023-03-25T20:06:14.678Z,77.60
2023-03-25T20:08:43.112Z,77.60
2023-03-25T20:11:12.401Z,77.70
2023-03-25T20:13:42.589Z,77.90
2023-03-25T20:16:11.297Z,78.00
2023-03-25T20:18:42.374Z,78.00
2023-03-25T20:21:11.751Z,78.30
2023-03-25T20:23:39.884Z,78.40
2023-03-25T20:26:08.449Z,78.50
2023-03-25T20:28:37.307Z,78.60
2023-03-25T20:31:28.297Z,78.70
2023-03-25T20:33:56.774Z,78.70
2023-03-25T20:36:25.345Z,78.70
2023-03-25T20:38:57.850Z,78.80
2023-03-25T20:41:26.952Z,78.80
2023-03-25T20:43:59.007Z,78.80
2023-03-25T20:46:31.515Z,78.80
2023-03-25T20:49:01.957Z,78.80
2023-03-25T20:51:30.571Z,78.90
2023-03-25T20:53:58.926Z,78.90
2023-03-25T20:56:27.487Z,78.90
2023-03-25T20:58:56.679Z,79.00
2023-03-25T21:01:25.086Z,79.00
2023-03-25T21:03:55.160Z,79.10
2023-03-25T21:06:28.250Z,79.10
2023-03-25T21:09:00.976Z,79.20
2023-03-25T21:11:32.638Z,79.20
2023-03-25T21:14:05.463Z,79.20
2023-03-25T21:16:34.466Z,79.20
2023-03-25T21:19:05.106Z,79.20
2023-03-25T21:21:34.114Z,79.30
2023-03-25T21:24:04.140Z,79.20
2023-03-25T21:26:32.641Z,79.20
2023-03-25T21:29:02.554Z,79.20
2023-03-25T21:31:31.075Z,79.20
2023-03-25T21:34:00.191Z,79.20
2023-03-25T21:36:32.507Z,79.20
2023-03-25T21:39:02.055Z,79.00
2023-03-25T21:41:30.989Z,79.00
2023-03-25T21:43:59.587Z,79.00
2023-03-25T21:46:30.530Z,78.90
2023-03-25T21:49:01.383Z,78.80
2023-03-25T21:51:32.858Z,78.80
2023-03-25T21:54:01.542Z,78.70
2023-03-25T21:56:31.774Z,78.70
2023-03-25T21:59:02.183Z,78.70
2023-03-25T22:01:31.531Z,78.70
2023-03-25T22:04:01.486Z,78.60
2023-03-25T22:06:33.324Z,78.60
2023-03-25T22:09:05.438Z,78.70
2023-03-25T22:11:35.645Z,78.70
2023-03-25T22:14:05.433Z,78.70
2023-03-25T22:16:34.245Z,79.00
2023-03-25T22:19:02.954Z,79.00
2023-03-25T22:21:34.475Z,79.10
2023-03-25T22:24:03.809Z,79.10
2023-03-25T22:26:33.934Z,79.20
2023-03-25T22:29:04.061Z,79.20
2023-03-25T22:31:33.255Z,79.30
2023-03-25T22:34:04.573Z,79.30
2023-03-25T22:36:35.596Z,79.30
2023-03-25T22:39:04.197Z,79.30
2023-03-25T22:41:32.638Z,79.30
2023-03-25T22:44:01.456Z,79.40
2023-03-25T22:46:32.482Z,79.50
2023-03-25T22:49:01.366Z,79.50
2023-03-25T22:51:32.027Z,79.50
2023-03-25T22:54:05.347Z,79.40
2023-03-25T22:56:35.267Z,79.30
2023-03-25T22:59:05.900Z,79.00
2023-03-25T23:01:34.532Z,78.90
2023-03-25T23:04:03.138Z,78.70
2023-03-25T23:06:33.182Z,78.60
2023-03-25T23:09:03.915Z,78.50
2023-03-25T23:11:33.753Z,78.50
2023-03-25T23:14:03.738Z,78.30
2023-03-25T23:16:35.724Z,78.30
2023-03-25T23:19:06.134Z,78.30
2023-03-25T23:21:35.171Z,78.30
2023-03-25T23:24:06.424Z,78.30
2023-03-25T23:26:39.512Z,78.30
2023-03-25T23:29:09.912Z,78.20
2023-03-25T23:31:41.218Z,78.30
2023-03-25T23:34:10.878Z,78.40
2023-03-25T23:36:42.194Z,78.50
2023-03-25T23:39:17.520Z,78.70
2023-03-25T23:41:45.693Z,78.80
2023-03-25T23:44:13.951Z,78.90
2023-03-25T23:46:42.801Z,78.80
2023-03-25T23:49:11.619Z,78.80
2023-03-25T23:51:43.204Z,78.90
2023-03-25T23:54:13.472Z,78.90
2023-03-25T23:56:43.328Z,78.80
2023-03-25T23:59:12.190Z,78.90
